sensor_id;sensor_type;location;lat;lon;timestamp;P1;durP1;ratioP1;P2;durP2;ratioP2
18899;SDS011;9582;52.018;6.306;2023-09-19T00:02:20;5.22;;;2.13;;
18899;SDS011;9582;52.018;6.306;2023-09-19T00:04:47;10.95;;;2.58;;
18899;SDS011;9582;52.018;6.306;2023-09-19T00:07:13;7.47;;;2.17;;
18899;SDS011;9582;52.018;6.306;2023-09-19T00:09:41;4.90;;;2.22;;
18899;SDS011;9582;52.018;6.306;2023-09-19T00:12:09;6.80;;;2.20;;
18899;SDS011;9582;52.018;6.306;2023-09-19T00:14:36;7.40;;;2.90;;
18899;SDS011;9582;52.018;6.306;2023-09-19T00:17:04;9.85;;;2.83;;
18899;SDS011;9582;52.018;6.306;2023-09-19T00:19:33;11.07;;;3.08;;
18899;SDS011;9582;52.018;6.306;2023-09-19T00:21:59;6.80;;;2.55;;
18899;SDS011;9582;52.018;6.306;2023-09-19T00:24:26;8.57;;;2.63;;
18899;SDS011;9582;52.018;6.306;2023-09-19T00:26:53;7.32;;;2.63;;
18899;SDS011;9582;52.018;6.306;2023-09-19T00:29:20;9.27;;;2.58;;
18899;SDS011;9582;52.018;6.306;2023-09-19T00:31:49;10.13;;;3.03;;
18899;SDS011;9582;52.018;6.306;2023-09-19T00:34:17;8.38;;;2.70;;
18899;SDS011;9582;52.018;6.306;2023-09-19T00:36:45;10.20;;;2.90;;
18899;SDS011;9582;52.018;6.306;2023-09-19T00:39:12;10.25;;;3.10;;
18899;SDS011;9582;52.018;6.306;2023-09-19T00:41:39;7.35;;;2.88;;
18899;SDS011;9582;52.018;6.306;2023-09-19T00:44:06;9.27;;;4.03;;
18899;SDS011;9582;52.018;6.306;2023-09-19T00:46:32;9.25;;;3.13;;
18899;SDS011;9582;52.018;6.306;2023-09-19T00:48:59;12.52;;;2.88;;
18899;SDS011;9582;52.018;6.306;2023-09-19T00:51:27;9.63;;;2.65;;
18899;SDS011;9582;52.018;6.306;2023-09-19T00:53:54;9.52;;;2.78;;
18899;SDS011;9582;52.018;6.306;2023-09-19T00:56:21;8.32;;;2.92;;
18899;SDS011;9582;52.018;6.306;2023-09-19T00:58:48;8.32;;;2.58;;
18899;SDS011;9582;52.018;6.306;2023-09-19T01:01:15;10.90;;;2.53;;
18899;SDS011;9582;52.018;6.306;2023-09-19T01:03:42;9.38;;;3.50;;
18899;SDS011;9582;52.018;6.306;2023-09-19T01:06:08;13.15;;;2.95;;
18899;SDS011;9582;52.018;6.306;2023-09-19T01:08:39;10.68;;;2.65;;
18899;SDS011;9582;52.018;6.306;2023-09-19T01:11:09;8.75;;;2.88;;
18899;SDS011;9582;52.018;6.306;2023-09-19T01:13:43;9.43;;;2.60;;
18899;SDS011;9582;52.018;6.306;2023-09-19T01:16:16;7.50;;;2.40;;
18899;SDS011;9582;52.018;6.306;2023-09-19T01:18:52;6.28;;;2.25;;
18899;SDS011;9582;52.018;6.306;2023-09-19T01:21:36;7.85;;;2.60;;
18899;SDS011;9582;52.018;6.306;2023-09-19T01:24:28;3.60;;;2.10;;
18899;SDS011;9582;52.018;6.306;2023-09-19T01:27:31;7.85;;;2.80;;
18899;SDS011;9582;52.018;6.306;2023-09-19T01:30:21;8.10;;;2.80;;
18899;SDS011;9582;52.018;6.306;2023-09-19T01:32:54;10.45;;;3.50;;
18899;SDS011;9582;52.018;6.306;2023-09-19T01:35:22;8.55;;;2.80;;
18899;SDS011;9582;52.018;6.306;2023-09-19T01:37:49;8.15;;;2.90;;
18899;SDS011;9582;52.018;6.306;2023-09-19T01:40:17;9.02;;;3.35;;
18899;SDS011;9582;52.018;6.306;2023-09-19T01:42:48;11.70;;;3.63;;
18899;SDS011;9582;52.018;6.306;2023-09-19T01:45:31;10.63;;;3.15;;
18899;SDS011;9582;52.018;6.306;2023-09-19T01:48:08;10.35;;;2.83;;
18899;SDS011;9582;52.018;6.306;2023-09-19T01:50:47;12.95;;;3.60;;
18899;SDS011;9582;52.018;6.306;2023-09-19T01:53:21;6.57;;;2.75;;
18899;SDS011;9582;52.018;6.306;2023-09-19T01:55:53;10.68;;;3.35;;
18899;SDS011;9582;52.018;6.306;2023-09-19T01:58:21;7.40;;;2.80;;
18899;SDS011;9582;52.018;6.306;2023-09-19T02:00:55;10.93;;;3.10;;
18899;SDS011;9582;52.018;6.306;2023-09-19T02:03:24;8.23;;;2.30;;
18899;SDS011;9582;52.018;6.306;2023-09-19T02:05:54;11.45;;;3.28;;
18899;SDS011;9582;52.018;6.306;2023-09-19T02:08:21;6.22;;;2.78;;
18899;SDS011;9582;52.018;6.306;2023-09-19T02:10:49;10.15;;;3.15;;
18899;SDS011;9582;52.018;6.306;2023-09-19T02:13:15;10.55;;;3.60;;
18899;SDS011;9582;52.018;6.306;2023-09-19T02:15:44;13.23;;;3.08;;
18899;SDS011;9582;52.018;6.306;2023-09-19T02:18:12;12.15;;;3.35;;
18899;SDS011;9582;52.018;6.306;2023-09-19T02:20:39;13.32;;;3.10;;
18899;SDS011;9582;52.018;6.306;2023-09-19T02:23:06;10.00;;;2.10;;
18899;SDS011;9582;52.018;6.306;2023-09-19T02:25:33;8.05;;;2.72;;
18899;SDS011;9582;52.018;6.306;2023-09-19T02:28:00;10.93;;;2.90;;
18899;SDS011;9582;52.018;6.306;2023-09-19T02:30:28;9.38;;;2.83;;
18899;SDS011;9582;52.018;6.306;2023-09-19T02:32:55;8.38;;;2.50;;
18899;SDS011;9582;52.018;6.306;2023-09-19T02:35:22;10.88;;;2.85;;
18899;SDS011;9582;52.018;6.306;2023-09-19T02:37:50;11.45;;;3.28;;
18899;SDS011;9582;52.018;6.306;2023-09-19T02:40:17;5.03;;;2.22;;
18899;SDS011;9582;52.018;6.306;2023-09-19T02:42:47;7.15;;;2.33;;
18899;SDS011;9582;52.018;6.306;2023-09-19T02:45:15;10.75;;;2.65;;
18899;SDS011;9582;52.018;6.306;2023-09-19T02:47:43;8.52;;;2.20;;
18899;SDS011;9582;52.018;6.306;2023-09-19T02:50:10;7.97;;;2.50;;
18899;SDS011;9582;52.018;6.306;2023-09-19T02:52:40;10.52;;;2.60;;
18899;SDS011;9582;52.018;6.306;2023-09-19T02:55:08;10.07;;;2.88;;
18899;SDS011;9582;52.018;6.306;2023-09-19T02:57:35;12.75;;;3.00;;
18899;SDS011;9582;52.018;6.306;2023-09-19T03:00:06;9.68;;;3.17;;
18899;SDS011;9582;52.018;6.306;2023-09-19T03:02:35;9.88;;;2.90;;
18899;SDS011;9582;52.018;6.306;2023-09-19T03:05:03;9.43;;;2.60;;
18899;SDS011;9582;52.018;6.306;2023-09-19T03:07:30;11.40;;;2.88;;
18899;SDS011;9582;52.018;6.306;2023-09-19T03:09:58;9.57;;;2.30;;
18899;SDS011;9582;52.018;6.306;2023-09-19T03:12:25;7.20;;;2.35;;
18899;SDS011;9582;52.018;6.306;2023-09-19T03:14:51;10.93;;;2.60;;
18899;SDS011;9582;52.018;6.306;2023-09-19T03:17:18;10.32;;;2.90;;
18899;SDS011;9582;52.018;6.306;2023-09-19T03:19:45;9.25;;;3.25;;
18899;SDS011;9582;52.018;6.306;2023-09-19T03:22:12;13.77;;;2.75;;
18899;SDS011;9582;52.018;6.306;2023-09-19T03:24:39;6.82;;;2.40;;
18899;SDS011;9582;52.018;6.306;2023-09-19T03:27:08;11.13;;;3.53;;
18899;SDS011;9582;52.018;6.306;2023-09-19T03:29:35;10.52;;;2.17;;
18899;SDS011;9582;52.018;6.306;2023-09-19T03:32:03;10.70;;;3.08;;
18899;SDS011;9582;52.018;6.306;2023-09-19T03:34:31;10.77;;;2.95;;
18899;SDS011;9582;52.018;6.306;2023-09-19T03:36:58;11.05;;;2.88;;
18899;SDS011;9582;52.018;6.306;2023-09-19T03:39:25;9.13;;;2.78;;
18899;SDS011;9582;52.018;6.306;2023-09-19T03:41:51;10.65;;;2.83;;
18899;SDS011;9582;52.018;6.306;2023-09-19T03:44:19;10.77;;;2.47;;
18899;SDS011;9582;52.018;6.306;2023-09-19T03:46:45;8.00;;;2.75;;
18899;SDS011;9582;52.018;6.306;2023-09-19T03:49:12;12.75;;;2.88;;
18899;SDS011;9582;52.018;6.306;2023-09-19T03:51:38;8.88;;;2.72;;
18899;SDS011;9582;52.018;6.306;2023-09-19T03:54:06;10.23;;;2.95;;
18899;SDS011;9582;52.018;6.306;2023-09-19T03:56:33;8.82;;;2.45;;
18899;SDS011;9582;52.018;6.306;2023-09-19T03:58:59;10.20;;;2.83;;
18899;SDS011;9582;52.018;6.306;2023-09-19T04:01:27;6.32;;;2.35;;
18899;SDS011;9582;52.018;6.306;2023-09-19T04:03:57;10.20;;;2.90;;
18899;SDS011;9582;52.018;6.306;2023-09-19T04:06:23;11.57;;;2.90;;
18899;SDS011;9582;52.018;6.306;2023-09-19T04:08:51;12.18;;;2.88;;
18899;SDS011;9582;52.018;6.306;2023-09-19T04:11:18;11.10;;;2.90;;
18899;SDS011;9582;52.018;6.306;2023-09-19T04:13:45;12.52;;;2.95;;
18899;SDS011;9582;52.018;6.306;2023-09-19T04:16:11;8.52;;;2.47;;
18899;SDS011;9582;52.018;6.306;2023-09-19T04:18:39;10.43;;;3.05;;
18899;SDS011;9582;52.018;6.306;2023-09-19T04:21:07;11.02;;;2.72;;
18899;SDS011;9582;52.018;6.306;2023-09-19T04:23:34;9.43;;;3.28;;
18899;SDS011;9582;52.018;6.306;2023-09-19T04:26:00;11.32;;;3.05;;
18899;SDS011;9582;52.018;6.306;2023-09-19T04:28:29;12.88;;;3.53;;
18899;SDS011;9582;52.018;6.306;2023-09-19T04:30:56;10.13;;;2.58;;
18899;SDS011;9582;52.018;6.306;2023-09-19T04:33:22;8.20;;;2.47;;
18899;SDS011;9582;52.018;6.306;2023-09-19T04:35:50;10.57;;;2.05;;
18899;SDS011;9582;52.018;6.306;2023-09-19T04:38:17;9.65;;;2.58;;
18899;SDS011;9582;52.018;6.306;2023-09-19T04:40:44;7.40;;;2.45;;
18899;SDS011;9582;52.018;6.306;2023-09-19T04:43:10;8.13;;;2.65;;
18899;SDS011;9582;52.018;6.306;2023-09-19T04:45:38;9.35;;;2.30;;
18899;SDS011;9582;52.018;6.306;2023-09-19T04:48:05;6.78;;;2.50;;
18899;SDS011;9582;52.018;6.306;2023-09-19T04:50:34;8.77;;;2.38;;
18899;SDS011;9582;52.018;6.306;2023-09-19T04:53:01;9.00;;;2.45;;
18899;SDS011;9582;52.018;6.306;2023-09-19T04:55:28;11.15;;;2.03;;
18899;SDS011;9582;52.018;6.306;2023-09-19T04:57:55;8.50;;;2.70;;
18899;SDS011;9582;52.018;6.306;2023-09-19T05:00:22;9.10;;;3.13;;
18899;SDS011;9582;52.018;6.306;2023-09-19T05:02:49;6.18;;;2.40;;
18899;SDS011;9582;52.018;6.306;2023-09-19T05:05:17;9.25;;;2.55;;
18899;SDS011;9582;52.018;6.306;2023-09-19T05:07:44;9.00;;;2.60;;
18899;SDS011;9582;52.018;6.306;2023-09-19T05:10:12;10.45;;;2.05;;
18899;SDS011;9582;52.018;6.306;2023-09-19T05:12:39;9.02;;;2.58;;
18899;SDS011;9582;52.018;6.306;2023-09-19T05:15:06;6.63;;;2.45;;
18899;SDS011;9582;52.018;6.306;2023-09-19T05:17:34;6.75;;;2.00;;
18899;SDS011;9582;52.018;6.306;2023-09-19T05:20:01;6.20;;;2.30;;
18899;SDS011;9582;52.018;6.306;2023-09-19T05:22:31;8.20;;;2.50;;
18899;SDS011;9582;52.018;6.306;2023-09-19T05:24:58;9.45;;;2.60;;
18899;SDS011;9582;52.018;6.306;2023-09-19T05:27:26;10.25;;;2.30;;
18899;SDS011;9582;52.018;6.306;2023-09-19T05:29:52;10.77;;;2.42;;
18899;SDS011;9582;52.018;6.306;2023-09-19T05:32:20;9.45;;;2.22;;
18899;SDS011;9582;52.018;6.306;2023-09-19T05:34:47;10.50;;;2.65;;
18899;SDS011;9582;52.018;6.306;2023-09-19T05:37:14;7.95;;;2.45;;
18899;SDS011;9582;52.018;6.306;2023-09-19T05:39:41;11.75;;;2.47;;
18899;SDS011;9582;52.018;6.306;2023-09-19T05:42:08;11.23;;;2.10;;
18899;SDS011;9582;52.018;6.306;2023-09-19T05:44:36;5.95;;;2.10;;
18899;SDS011;9582;52.018;6.306;2023-09-19T05:47:03;5.68;;;2.17;;
18899;SDS011;9582;52.018;6.306;2023-09-19T05:49:29;9.48;;;2.55;;
18899;SDS011;9582;52.018;6.306;2023-09-19T05:51:56;7.30;;;2.17;;
18899;SDS011;9582;52.018;6.306;2023-09-19T05:54:24;7.50;;;2.35;;
18899;SDS011;9582;52.018;6.306;2023-09-19T05:56:51;8.65;;;2.40;;
18899;SDS011;9582;52.018;6.306;2023-09-19T05:59:18;12.23;;;2.80;;
18899;SDS011;9582;52.018;6.306;2023-09-19T06:01:46;5.47;;;2.40;;
18899;SDS011;9582;52.018;6.306;2023-09-19T06:04:12;9.88;;;2.20;;
18899;SDS011;9582;52.018;6.306;2023-09-19T06:06:39;7.78;;;2.33;;
18899;SDS011;9582;52.018;6.306;2023-09-19T06:09:05;10.93;;;2.38;;
18899;SDS011;9582;52.018;6.306;2023-09-19T06:11:33;8.20;;;2.70;;
18899;SDS011;9582;52.018;6.306;2023-09-19T06:14:00;8.75;;;3.10;;
18899;SDS011;9582;52.018;6.306;2023-09-19T06:16:27;9.05;;;2.25;;
18899;SDS011;9582;52.018;6.306;2023-09-19T06:18:55;9.30;;;2.55;;
18899;SDS011;9582;52.018;6.306;2023-09-19T06:21:21;7.43;;;2.35;;
18899;SDS011;9582;52.018;6.306;2023-09-19T06:23:48;8.05;;;2.83;;
18899;SDS011;9582;52.018;6.306;2023-09-19T06:26:15;10.48;;;2.63;;
18899;SDS011;9582;52.018;6.306;2023-09-19T06:28:42;8.27;;;2.47;;
18899;SDS011;9582;52.018;6.306;2023-09-19T06:31:09;7.45;;;2.50;;
18899;SDS011;9582;52.018;6.306;2023-09-19T06:33:35;12.75;;;3.42;;
18899;SDS011;9582;52.018;6.306;2023-09-19T06:36:04;8.75;;;2.33;;
18899;SDS011;9582;52.018;6.306;2023-09-19T06:38:31;6.82;;;2.60;;
18899;SDS011;9582;52.018;6.306;2023-09-19T06:40:59;8.00;;;2.05;;
18899;SDS011;9582;52.018;6.306;2023-09-19T06:43:29;8.63;;;2.50;;
18899;SDS011;9582;52.018;6.306;2023-09-19T06:45:56;8.40;;;2.55;;
18899;SDS011;9582;52.018;6.306;2023-09-19T06:48:22;9.73;;;2.72;;
18899;SDS011;9582;52.018;6.306;2023-09-19T06:50:50;6.82;;;2.47;;
18899;SDS011;9582;52.018;6.306;2023-09-19T06:53:18;7.57;;;2.50;;
18899;SDS011;9582;52.018;6.306;2023-09-19T06:55:44;8.48;;;2.53;;
18899;SDS011;9582;52.018;6.306;2023-09-19T06:58:10;7.20;;;2.10;;
18899;SDS011;9582;52.018;6.306;2023-09-19T07:00:37;9.10;;;2.65;;
18899;SDS011;9582;52.018;6.306;2023-09-19T07:03:04;9.55;;;2.17;;
18899;SDS011;9582;52.018;6.306;2023-09-19T07:05:36;7.05;;;2.22;;
18899;SDS011;9582;52.018;6.306;2023-09-19T07:08:04;8.93;;;2.97;;
18899;SDS011;9582;52.018;6.306;2023-09-19T07:10:33;7.80;;;2.63;;
18899;SDS011;9582;52.018;6.306;2023-09-19T07:13:00;7.72;;;2.35;;
18899;SDS011;9582;52.018;6.306;2023-09-19T07:15:28;6.78;;;2.58;;
18899;SDS011;9582;52.018;6.306;2023-09-19T07:17:55;9.73;;;2.22;;
18899;SDS011;9582;52.018;6.306;2023-09-19T07:20:23;6.07;;;2.15;;
18899;SDS011;9582;52.018;6.306;2023-09-19T07:22:51;8.23;;;2.45;;
18899;SDS011;9582;52.018;6.306;2023-09-19T07:25:19;8.43;;;2.70;;
18899;SDS011;9582;52.018;6.306;2023-09-19T07:27:47;10.40;;;2.53;;
18899;SDS011;9582;52.018;6.306;2023-09-19T07:30:14;7.30;;;2.08;;
18899;SDS011;9582;52.018;6.306;2023-09-19T07:32:41;8.70;;;2.65;;
18899;SDS011;9582;52.018;6.306;2023-09-19T07:35:08;10.73;;;2.60;;
18899;SDS011;9582;52.018;6.306;2023-09-19T07:37:34;9.63;;;2.60;;
18899;SDS011;9582;52.018;6.306;2023-09-19T07:40:01;10.82;;;2.40;;
18899;SDS011;9582;52.018;6.306;2023-09-19T07:42:32;13.57;;;2.97;;
18899;SDS011;9582;52.018;6.306;2023-09-19T07:45:01;7.80;;;2.70;;
18899;SDS011;9582;52.018;6.306;2023-09-19T07:47:28;7.15;;;2.22;;
18899;SDS011;9582;52.018;6.306;2023-09-19T07:49:55;8.70;;;2.55;;
18899;SDS011;9582;52.018;6.306;2023-09-19T07:52:21;8.80;;;2.33;;
18899;SDS011;9582;52.018;6.306;2023-09-19T07:54:49;12.25;;;2.92;;
18899;SDS011;9582;52.018;6.306;2023-09-19T07:57:15;9.65;;;3.60;;
18899;SDS011;9582;52.018;6.306;2023-09-19T07:59:42;10.30;;;2.55;;
18899;SDS011;9582;52.018;6.306;2023-09-19T08:02:09;9.63;;;2.53;;
18899;SDS011;9582;52.018;6.306;2023-09-19T08:04:40;7.35;;;2.72;;
18899;SDS011;9582;52.018;6.306;2023-09-19T08:07:07;8.30;;;2.25;;
18899;SDS011;9582;52.018;6.306;2023-09-19T08:09:36;7.43;;;2.60;;
18899;SDS011;9582;52.018;6.306;2023-09-19T08:12:04;12.60;;;2.45;;
18899;SDS011;9582;52.018;6.306;2023-09-19T08:14:30;6.90;;;2.53;;
18899;SDS011;9582;52.018;6.306;2023-09-19T08:16:58;11.55;;;2.85;;
18899;SDS011;9582;52.018;6.306;2023-09-19T08:19:26;10.95;;;3.10;;
18899;SDS011;9582;52.018;6.306;2023-09-19T08:21:56;8.50;;;2.95;;
18899;SDS011;9582;52.018;6.306;2023-09-19T08:24:24;8.32;;;2.20;;
18899;SDS011;9582;52.018;6.306;2023-09-19T08:26:52;9.20;;;2.42;;
18899;SDS011;9582;52.018;6.306;2023-09-19T08:29:19;8.60;;;2.60;;
18899;SDS011;9582;52.018;6.306;2023-09-19T08:31:46;11.80;;;2.58;;
18899;SDS011;9582;52.018;6.306;2023-09-19T08:34:14;10.65;;;2.80;;
18899;SDS011;9582;52.018;6.306;2023-09-19T08:36:42;8.90;;;2.70;;
18899;SDS011;9582;52.018;6.306;2023-09-19T08:39:10;9.35;;;2.80;;
18899;SDS011;9582;52.018;6.306;2023-09-19T08:41:38;6.75;;;2.05;;
18899;SDS011;9582;52.018;6.306;2023-09-19T08:44:05;10.52;;;2.70;;
18899;SDS011;9582;52.018;6.306;2023-09-19T08:46:31;12.15;;;2.72;;
18899;SDS011;9582;52.018;6.306;2023-09-19T08:49:04;8.75;;;2.45;;
18899;SDS011;9582;52.018;6.306;2023-09-19T08:51:33;11.05;;;2.83;;
18899;SDS011;9582;52.018;6.306;2023-09-19T08:54:11;11.75;;;2.58;;
18899;SDS011;9582;52.018;6.306;2023-09-19T08:56:47;10.10;;;2.47;;
18899;SDS011;9582;52.018;6.306;2023-09-19T08:59:14;9.30;;;2.28;;
18899;SDS011;9582;52.018;6.306;2023-09-19T09:01:42;11.13;;;3.08;;
18899;SDS011;9582;52.018;6.306;2023-09-19T09:04:09;9.75;;;2.67;;
18899;SDS011;9582;52.018;6.306;2023-09-19T09:06:38;8.50;;;2.40;;
18899;SDS011;9582;52.018;6.306;2023-09-19T09:09:05;10.35;;;2.85;;
18899;SDS011;9582;52.018;6.306;2023-09-19T09:11:35;8.85;;;3.03;;
18899;SDS011;9582;52.018;6.306;2023-09-19T09:14:05;10.60;;;2.92;;
18899;SDS011;9582;52.018;6.306;2023-09-19T09:16:32;10.50;;;2.70;;
18899;SDS011;9582;52.018;6.306;2023-09-19T09:18:59;10.27;;;1.90;;
18899;SDS011;9582;52.018;6.306;2023-09-19T09:21:26;9.93;;;3.17;;
18899;SDS011;9582;52.018;6.306;2023-09-19T09:23:53;11.15;;;2.67;;
18899;SDS011;9582;52.018;6.306;2023-09-19T09:26:24;7.82;;;2.95;;
18899;SDS011;9582;52.018;6.306;2023-09-19T09:29:09;11.25;;;2.65;;
18899;SDS011;9582;52.018;6.306;2023-09-19T09:31:35;8.90;;;2.80;;
18899;SDS011;9582;52.018;6.306;2023-09-19T09:34:02;13.23;;;2.65;;
18899;SDS011;9582;52.018;6.306;2023-09-19T09:36:33;6.85;;;2.45;;
18899;SDS011;9582;52.018;6.306;2023-09-19T09:39:02;11.32;;;3.00;;
18899;SDS011;9582;52.018;6.306;2023-09-19T09:41:42;10.48;;;2.50;;
18899;SDS011;9582;52.018;6.306;2023-09-19T09:44:12;10.02;;;2.63;;
18899;SDS011;9582;52.018;6.306;2023-09-19T09:46:42;8.88;;;2.83;;
18899;SDS011;9582;52.018;6.306;2023-09-19T09:49:46;9.93;;;2.92;;
18899;SDS011;9582;52.018;6.306;2023-09-19T09:52:19;9.75;;;2.30;;
18899;SDS011;9582;52.018;6.306;2023-09-19T09:54:58;4.05;;;2.08;;
18899;SDS011;9582;52.018;6.306;2023-09-19T09:57:26;12.10;;;2.55;;
18899;SDS011;9582;52.018;6.306;2023-09-19T09:59:55;8.25;;;2.25;;
18899;SDS011;9582;52.018;6.306;2023-09-19T10:02:37;7.10;;;1.98;;
18899;SDS011;9582;52.018;6.306;2023-09-19T10:05:11;12.52;;;2.67;;
18899;SDS011;9582;52.018;6.306;2023-09-19T10:07:47;8.40;;;2.13;;
18899;SDS011;9582;52.018;6.306;2023-09-19T10:10:29;9.10;;;2.65;;
18899;SDS011;9582;52.018;6.306;2023-09-19T10:13:05;6.45;;;2.25;;
18899;SDS011;9582;52.018;6.306;2023-09-19T10:15:33;6.22;;;2.20;;
18899;SDS011;9582;52.018;6.306;2023-09-19T10:18:01;8.50;;;2.45;;
18899;SDS011;9582;52.018;6.306;2023-09-19T10:20:31;8.82;;;2.45;;
18899;SDS011;9582;52.018;6.306;2023-09-19T10:23:04;7.80;;;2.65;;
18899;SDS011;9582;52.018;6.306;2023-09-19T10:25:38;5.95;;;2.85;;
18899;SDS011;9582;52.018;6.306;2023-09-19T10:28:07;4.75;;;1.77;;
18899;SDS011;9582;52.018;6.306;2023-09-19T10:30:37;7.22;;;2.28;;
18899;SDS011;9582;52.018;6.306;2023-09-19T10:33:07;8.18;;;2.70;;
18899;SDS011;9582;52.018;6.306;2023-09-19T10:35:34;7.93;;;1.98;;
18899;SDS011;9582;52.018;6.306;2023-09-19T10:38:05;9.82;;;2.47;;
18899;SDS011;9582;52.018;6.306;2023-09-19T10:40:34;8.82;;;2.60;;
18899;SDS011;9582;52.018;6.306;2023-09-19T10:43:07;8.02;;;2.20;;
18899;SDS011;9582;52.018;6.306;2023-09-19T10:45:38;9.68;;;2.60;;
18899;SDS011;9582;52.018;6.306;2023-09-19T10:48:06;7.60;;;2.80;;
18899;SDS011;9582;52.018;6.306;2023-09-19T10:50:36;9.95;;;2.20;;
18899;SDS011;9582;52.018;6.306;2023-09-19T10:53:10;6.10;;;2.38;;
18899;SDS011;9582;52.018;6.306;2023-09-19T10:55:38;7.00;;;2.47;;
18899;SDS011;9582;52.018;6.306;2023-09-19T10:58:07;9.57;;;2.22;;
18899;SDS011;9582;52.018;6.306;2023-09-19T11:00:49;7.45;;;1.98;;
18899;SDS011;9582;52.018;6.306;2023-09-19T11:03:17;6.65;;;2.40;;
18899;SDS011;9582;52.018;6.306;2023-09-19T11:06:05;11.10;;;2.60;;
18899;SDS011;9582;52.018;6.306;2023-09-19T11:08:54;6.47;;;2.30;;
18899;SDS011;9582;52.018;6.306;2023-09-19T11:11:41;8.43;;;2.10;;
18899;SDS011;9582;52.018;6.306;2023-09-19T11:14:15;12.02;;;2.10;;
18899;SDS011;9582;52.018;6.306;2023-09-19T11:20:20;9.15;;;2.28;;
18899;SDS011;9582;52.018;6.306;2023-09-19T11:25:51;9.32;;;2.00;;
18899;SDS011;9582;52.018;6.306;2023-09-19T11:28:32;6.13;;;2.15;;
18899;SDS011;9582;52.018;6.306;2023-09-19T11:40:27;4.95;;;2.10;;
18899;SDS011;9582;52.018;6.306;2023-09-19T11:42:55;5.25;;;1.42;;
18899;SDS011;9582;52.018;6.306;2023-09-19T11:48:27;4.88;;;1.60;;
18899;SDS011;9582;52.018;6.306;2023-09-19T11:50:55;7.78;;;1.83;;
18899;SDS011;9582;52.018;6.306;2023-09-19T11:53:24;5.75;;;1.80;;
18899;SDS011;9582;52.018;6.306;2023-09-19T11:56:01;5.43;;;2.10;;
18899;SDS011;9582;52.018;6.306;2023-09-19T11:58:35;8.75;;;1.95;;
18899;SDS011;9582;52.018;6.306;2023-09-19T12:01:03;7.07;;;2.28;;
18899;SDS011;9582;52.018;6.306;2023-09-19T12:03:37;5.55;;;1.67;;
18899;SDS011;9582;52.018;6.306;2023-09-19T12:06:13;7.07;;;2.15;;
18899;SDS011;9582;52.018;6.306;2023-09-19T12:08:40;7.75;;;1.77;;
18899;SDS011;9582;52.018;6.306;2023-09-19T12:11:11;5.20;;;1.77;;
18899;SDS011;9582;52.018;6.306;2023-09-19T12:13:41;8.07;;;1.73;;
18899;SDS011;9582;52.018;6.306;2023-09-19T12:16:11;7.15;;;1.90;;
18899;SDS011;9582;52.018;6.306;2023-09-19T12:18:40;3.88;;;1.27;;
18899;SDS011;9582;52.018;6.306;2023-09-19T12:21:07;7.00;;;2.88;;
18899;SDS011;9582;52.018;6.306;2023-09-19T12:23:38;6.80;;;2.47;;
18899;SDS011;9582;52.018;6.306;2023-09-19T12:26:07;5.82;;;2.05;;
18899;SDS011;9582;52.018;6.306;2023-09-19T12:28:40;5.50;;;1.65;;
18899;SDS011;9582;52.018;6.306;2023-09-19T12:31:08;5.78;;;1.83;;
18899;SDS011;9582;52.018;6.306;2023-09-19T12:33:36;5.45;;;1.85;;
18899;SDS011;9582;52.018;6.306;2023-09-19T12:36:18;5.93;;;2.08;;
18899;SDS011;9582;52.018;6.306;2023-09-19T12:38:55;8.52;;;1.85;;
18899;SDS011;9582;52.018;6.306;2023-09-19T12:41:24;8.10;;;1.90;;
18899;SDS011;9582;52.018;6.306;2023-09-19T12:43:51;6.45;;;1.98;;
18899;SDS011;9582;52.018;6.306;2023-09-19T12:46:19;3.55;;;1.67;;
18899;SDS011;9582;52.018;6.306;2023-09-19T12:48:49;7.18;;;1.88;;
18899;SDS011;9582;52.018;6.306;2023-09-19T12:51:34;5.45;;;1.75;;
18899;SDS011;9582;52.018;6.306;2023-09-19T12:54:03;3.55;;;1.50;;
18899;SDS011;9582;52.018;6.306;2023-09-19T12:56:30;4.70;;;1.85;;
18899;SDS011;9582;52.018;6.306;2023-09-19T12:59:07;6.53;;;1.75;;
18899;SDS011;9582;52.018;6.306;2023-09-19T13:01:37;6.25;;;1.67;;
18899;SDS011;9582;52.018;6.306;2023-09-19T13:04:14;3.95;;;1.70;;
18899;SDS011;9582;52.018;6.306;2023-09-19T13:06:44;4.38;;;1.40;;
18899;SDS011;9582;52.018;6.306;2023-09-19T13:09:15;5.50;;;1.50;;
18899;SDS011;9582;52.018;6.306;2023-09-19T13:11:42;7.57;;;1.70;;
18899;SDS011;9582;52.018;6.306;2023-09-19T13:14:15;5.22;;;1.73;;
18899;SDS011;9582;52.018;6.306;2023-09-19T13:16:53;3.78;;;1.30;;
18899;SDS011;9582;52.018;6.306;2023-09-19T13:19:39;5.32;;;1.55;;
18899;SDS011;9582;52.018;6.306;2023-09-19T13:25:08;4.05;;;1.15;;
18899;SDS011;9582;52.018;6.306;2023-09-19T13:27:39;2.65;;;1.30;;
18899;SDS011;9582;52.018;6.306;2023-09-19T13:30:07;4.80;;;1.35;;
18899;SDS011;9582;52.018;6.306;2023-09-19T13:32:34;2.60;;;1.35;;
18899;SDS011;9582;52.018;6.306;2023-09-19T13:35:01;3.88;;;1.38;;
18899;SDS011;9582;52.018;6.306;2023-09-19T13:37:30;3.10;;;1.17;;
18899;SDS011;9582;52.018;6.306;2023-09-19T13:39:56;4.13;;;1.40;;
18899;SDS011;9582;52.018;6.306;2023-09-19T13:42:26;2.88;;;1.20;;
18899;SDS011;9582;52.018;6.306;2023-09-19T13:44:54;3.85;;;1.52;;
18899;SDS011;9582;52.018;6.306;2023-09-19T13:47:21;3.10;;;0.90;;
18899;SDS011;9582;52.018;6.306;2023-09-19T13:49:49;2.42;;;1.13;;
18899;SDS011;9582;52.018;6.306;2023-09-19T13:52:17;5.05;;;1.25;;
18899;SDS011;9582;52.018;6.306;2023-09-19T13:54:44;4.03;;;1.10;;
18899;SDS011;9582;52.018;6.306;2023-09-19T13:57:10;2.65;;;1.08;;
18899;SDS011;9582;52.018;6.306;2023-09-19T13:59:38;4.00;;;1.10;;
18899;SDS011;9582;52.018;6.306;2023-09-19T14:02:05;4.38;;;1.27;;
18899;SDS011;9582;52.018;6.306;2023-09-19T14:04:32;3.38;;;1.27;;
18899;SDS011;9582;52.018;6.306;2023-09-19T14:06:59;4.35;;;1.27;;
18899;SDS011;9582;52.018;6.306;2023-09-19T14:09:26;4.10;;;1.10;;
18899;SDS011;9582;52.018;6.306;2023-09-19T14:11:53;3.95;;;1.15;;
18899;SDS011;9582;52.018;6.306;2023-09-19T14:14:19;5.43;;;1.23;;
18899;SDS011;9582;52.018;6.306;2023-09-19T14:16:47;4.15;;;1.20;;
18899;SDS011;9582;52.018;6.306;2023-09-19T14:19:14;4.22;;;1.15;;
18899;SDS011;9582;52.018;6.306;2023-09-19T14:21:41;2.63;;;0.88;;
18899;SDS011;9582;52.018;6.306;2023-09-19T14:24:08;2.22;;;1.00;;
18899;SDS011;9582;52.018;6.306;2023-09-19T14:26:36;3.45;;;0.95;;
18899;SDS011;9582;52.018;6.306;2023-09-19T14:29:03;2.88;;;0.98;;
18899;SDS011;9582;52.018;6.306;2023-09-19T14:31:30;2.60;;;1.20;;
18899;SDS011;9582;52.018;6.306;2023-09-19T14:33:58;2.35;;;1.00;;
18899;SDS011;9582;52.018;6.306;2023-09-19T14:36:25;4.28;;;1.30;;
18899;SDS011;9582;52.018;6.306;2023-09-19T14:38:53;5.28;;;1.27;;
18899;SDS011;9582;52.018;6.306;2023-09-19T14:41:21;2.53;;;1.27;;
18899;SDS011;9582;52.018;6.306;2023-09-19T14:43:47;4.38;;;1.30;;
18899;SDS011;9582;52.018;6.306;2023-09-19T14:46:15;1.70;;;0.82;;
18899;SDS011;9582;52.018;6.306;2023-09-19T14:48:41;3.67;;;1.15;;
18899;SDS011;9582;52.018;6.306;2023-09-19T14:51:10;3.30;;;1.05;;
18899;SDS011;9582;52.018;6.306;2023-09-19T14:53:37;3.45;;;1.10;;
18899;SDS011;9582;52.018;6.306;2023-09-19T14:56:04;1.17;;;0.77;;
18899;SDS011;9582;52.018;6.306;2023-09-19T14:58:32;6.90;;;1.45;;
18899;SDS011;9582;52.018;6.306;2023-09-19T15:01:03;3.20;;;1.10;;
18899;SDS011;9582;52.018;6.306;2023-09-19T15:03:30;3.28;;;1.25;;
18899;SDS011;9582;52.018;6.306;2023-09-19T15:06:01;2.92;;;1.10;;
18899;SDS011;9582;52.018;6.306;2023-09-19T15:08:31;3.17;;;1.10;;
18899;SDS011;9582;52.018;6.306;2023-09-19T15:10:59;2.28;;;1.00;;
18899;SDS011;9582;52.018;6.306;2023-09-19T15:13:29;2.63;;;1.40;;
18899;SDS011;9582;52.018;6.306;2023-09-19T15:15:58;4.82;;;1.42;;
18899;SDS011;9582;52.018;6.306;2023-09-19T15:18:25;3.08;;;1.30;;
18899;SDS011;9582;52.018;6.306;2023-09-19T15:20:51;5.70;;;1.40;;
18899;SDS011;9582;52.018;6.306;2023-09-19T15:23:19;2.78;;;1.00;;
18899;SDS011;9582;52.018;6.306;2023-09-19T15:25:48;1.98;;;1.00;;
18899;SDS011;9582;52.018;6.306;2023-09-19T15:28:16;4.38;;;1.38;;
18899;SDS011;9582;52.018;6.306;2023-09-19T15:30:42;2.03;;;1.23;;
18899;SDS011;9582;52.018;6.306;2023-09-19T15:33:10;3.13;;;1.23;;